sensor_id;sensor_type;location;lat;lon;timestamp;P1;durP1;ratioP1;P2;durP2;ratioP2
7338;SDS011;33747;49.524;8.390;2023-01-16T00:00:54;4.35;;;1.40;;
7338;SDS011;33747;49.524;8.390;2023-01-16T00:03:19;3.40;;;1.63;;
7338;SDS011;33747;49.524;8.390;2023-01-16T00:05:45;5.75;;;1.58;;
7338;SDS011;33747;49.524;8.390;2023-01-16T00:08:11;7.00;;;1.67;;
7338;SDS011;33747;49.524;8.390;2023-01-16T00:10:36;5.97;;;1.30;;
7338;SDS011;33747;49.524;8.390;2023-01-16T00:13:02;5.05;;;1.48;;
7338;SDS011;33747;49.524;8.390;2023-01-16T00:15:27;5.85;;;1.83;;
7338;SDS011;33747;49.524;8.390;2023-01-16T00:17:53;9.57;;;1.95;;
7338;SDS011;33747;49.524;8.390;2023-01-16T00:20:18;9.32;;;1.55;;
7338;SDS011;33747;49.524;8.390;2023-01-16T00:22:43;3.42;;;1.52;;
7338;SDS011;33747;49.524;8.390;2023-01-16T00:25:09;3.25;;;1.85;;
7338;SDS011;33747;49.524;8.390;2023-01-16T00:27:34;3.53;;;1.25;;
7338;SDS011;33747;49.524;8.390;2023-01-16T00:30:00;8.02;;;1.70;;
7338;SDS011;33747;49.524;8.390;2023-01-16T00:32:25;5.35;;;1.77;;
7338;SDS011;33747;49.524;8.390;2023-01-16T00:34:51;2.15;;;1.33;;
7338;SDS011;33747;49.524;8.390;2023-01-16T00:37:16;3.55;;;1.42;;
7338;SDS011;33747;49.524;8.390;2023-01-16T00:39:41;8.23;;;1.52;;
7338;SDS011;33747;49.524;8.390;2023-01-16T00:42:07;8.18;;;1.73;;
7338;SDS011;33747;49.524;8.390;2023-01-16T00:44:32;9.38;;;1.70;;
7338;SDS011;33747;49.524;8.390;2023-01-16T00:46:58;4.68;;;1.45;;
7338;SDS011;33747;49.524;8.390;2023-01-16T00:49:23;5.20;;;1.42;;
7338;SDS011;33747;49.524;8.390;2023-01-16T00:51:48;2.25;;;1.50;;
7338;SDS011;33747;49.524;8.390;2023-01-16T00:54:14;5.03;;;1.50;;
7338;SDS011;33747;49.524;8.390;2023-01-16T00:56:39;4.15;;;1.30;;
7338;SDS011;33747;49.524;8.390;2023-01-16T00:59:05;10.32;;;1.60;;
7338;SDS011;33747;49.524;8.390;2023-01-16T01:01:30;4.40;;;1.20;;
7338;SDS011;33747;49.524;8.390;2023-01-16T01:03:57;6.15;;;1.40;;
7338;SDS011;33747;49.524;8.390;2023-01-16T01:06:23;6.45;;;1.42;;
7338;SDS011;33747;49.524;8.390;2023-01-16T01:08:48;4.07;;;1.35;;
7338;SDS011;33747;49.524;8.390;2023-01-16T01:11:14;4.88;;;1.40;;
7338;SDS011;33747;49.524;8.390;2023-01-16T01:13:40;1.23;;;1.13;;
7338;SDS011;33747;49.524;8.390;2023-01-16T01:16:06;6.35;;;1.88;;
7338;SDS011;33747;49.524;8.390;2023-01-16T01:18:32;5.82;;;2.03;;
7338;SDS011;33747;49.524;8.390;2023-01-16T01:20:57;6.35;;;1.30;;
7338;SDS011;33747;49.524;8.390;2023-01-16T01:23:23;4.65;;;1.40;;
7338;SDS011;33747;49.524;8.390;2023-01-16T01:25:48;7.85;;;1.50;;
7338;SDS011;33747;49.524;8.390;2023-01-16T01:28:14;5.90;;;1.33;;
7338;SDS011;33747;49.524;8.390;2023-01-16T01:30:40;4.75;;;1.60;;
7338;SDS011;33747;49.524;8.390;2023-01-16T01:33:05;8.68;;;1.80;;
7338;SDS011;33747;49.524;8.390;2023-01-16T01:35:31;4.85;;;1.73;;
7338;SDS011;33747;49.524;8.390;2023-01-16T01:37:56;4.38;;;1.60;;
7338;SDS011;33747;49.524;8.390;2023-01-16T01:40:21;3.50;;;1.33;;
7338;SDS011;33747;49.524;8.390;2023-01-16T01:42:47;3.63;;;1.13;;
7338;SDS011;33747;49.524;8.390;2023-01-16T01:45:24;5.93;;;1.80;;
7338;SDS011;33747;49.524;8.390;2023-01-16T01:47:54;3.35;;;1.30;;
7338;SDS011;33747;49.524;8.390;2023-01-16T01:53:32;2.88;;;1.42;;
7338;SDS011;33747;49.524;8.390;2023-01-16T01:56:04;8.35;;;1.70;;
7338;SDS011;33747;49.524;8.390;2023-01-16T01:58:32;6.63;;;1.63;;
7338;SDS011;33747;49.524;8.390;2023-01-16T02:00:58;5.95;;;1.48;;
7338;SDS011;33747;49.524;8.390;2023-01-16T02:03:30;3.72;;;1.25;;
7338;SDS011;33747;49.524;8.390;2023-01-16T02:06:02;7.47;;;1.55;;
7338;SDS011;33747;49.524;8.390;2023-01-16T02:08:32;4.95;;;1.30;;
7338;SDS011;33747;49.524;8.390;2023-01-16T02:11:06;3.78;;;1.40;;
7338;SDS011;33747;49.524;8.390;2023-01-16T02:13:34;3.85;;;1.48;;
7338;SDS011;33747;49.524;8.390;2023-01-16T02:16:02;4.53;;;1.42;;
7338;SDS011;33747;49.524;8.390;2023-01-16T02:18:46;4.78;;;1.83;;
7338;SDS011;33747;49.524;8.390;2023-01-16T02:25:03;4.72;;;1.40;;
7338;SDS011;33747;49.524;8.390;2023-01-16T02:32:47;4.40;;;1.67;;
7338;SDS011;33747;49.524;8.390;2023-01-16T02:38:00;3.80;;;1.05;;
7338;SDS011;33747;49.524;8.390;2023-01-16T02:40:52;4.35;;;1.38;;
7338;SDS011;33747;49.524;8.390;2023-01-16T02:46:34;4.15;;;1.30;;
7338;SDS011;33747;49.524;8.390;2023-01-16T02:49:16;4.38;;;1.23;;
7338;SDS011;33747;49.524;8.390;2023-01-16T02:54:27;5.47;;;1.10;;
7338;SDS011;33747;49.524;8.390;2023-01-16T02:57:03;4.55;;;1.50;;
7338;SDS011;33747;49.524;8.390;2023-01-16T02:59:34;2.78;;;1.20;;
7338;SDS011;33747;49.524;8.390;2023-01-16T03:02:00;13.70;;;1.50;;
7338;SDS011;33747;49.524;8.390;2023-01-16T03:13:11;5.20;;;1.25;;
7338;SDS011;33747;49.524;8.390;2023-01-16T03:18:10;2.25;;;0.85;;
7338;SDS011;33747;49.524;8.390;2023-01-16T03:21:19;5.90;;;0.98;;
7338;SDS011;33747;49.524;8.390;2023-01-16T03:24:03;6.72;;;1.75;;
7338;SDS011;33747;49.524;8.390;2023-01-16T03:26:36;2.92;;;0.95;;
7338;SDS011;33747;49.524;8.390;2023-01-16T03:29:17;3.30;;;1.40;;
7338;SDS011;33747;49.524;8.390;2023-01-16T03:34:42;7.13;;;1.40;;
7338;SDS011;33747;49.524;8.390;2023-01-16T03:37:19;3.10;;;1.02;;
7338;SDS011;33747;49.524;8.390;2023-01-16T03:39:51;3.08;;;1.50;;
7338;SDS011;33747;49.524;8.390;2023-01-16T03:42:23;4.22;;;1.27;;
7338;SDS011;33747;49.524;8.390;2023-01-16T03:44:52;7.53;;;1.08;;
7338;SDS011;33747;49.524;8.390;2023-01-16T03:47:22;4.93;;;1.20;;
7338;SDS011;33747;49.524;8.390;2023-01-16T03:49:52;4.53;;;1.30;;
7338;SDS011;33747;49.524;8.390;2023-01-16T03:52:20;4.63;;;1.00;;
7338;SDS011;33747;49.524;8.390;2023-01-16T03:54:52;2.97;;;1.13;;
7338;SDS011;33747;49.524;8.390;2023-01-16T03:57:24;8.27;;;1.30;;
7338;SDS011;33747;49.524;8.390;2023-01-16T03:59:52;1.42;;;1.00;;
7338;SDS011;33747;49.524;8.390;2023-01-16T04:02:19;5.05;;;1.40;;
7338;SDS011;33747;49.524;8.390;2023-01-16T04:07:31;10.98;;;1.42;;
7338;SDS011;33747;49.524;8.390;2023-01-16T04:10:02;4.60;;;0.95;;
7338;SDS011;33747;49.524;8.390;2023-01-16T04:12:35;3.70;;;1.27;;
7338;SDS011;33747;49.524;8.390;2023-01-16T04:15:03;6.95;;;1.10;;
7338;SDS011;33747;49.524;8.390;2023-01-16T04:17:29;4.15;;;1.15;;
7338;SDS011;33747;49.524;8.390;2023-01-16T04:19:55;4.82;;;1.40;;
7338;SDS011;33747;49.524;8.390;2023-01-16T04:22:21;3.08;;;1.00;;
7338;SDS011;33747;49.524;8.390;2023-01-16T04:24:49;2.80;;;0.95;;
7338;SDS011;33747;49.524;8.390;2023-01-16T04:27:15;3.75;;;1.38;;
7338;SDS011;33747;49.524;8.390;2023-01-16T04:29:41;5.07;;;1.20;;
7338;SDS011;33747;49.524;8.390;2023-01-16T04:32:07;9.32;;;1.13;;
7338;SDS011;33747;49.524;8.390;2023-01-16T04:34:32;6.85;;;1.00;;
7338;SDS011;33747;49.524;8.390;2023-01-16T04:36:58;5.40;;;1.20;;
7338;SDS011;33747;49.524;8.390;2023-01-16T04:39:23;1.98;;;1.23;;
7338;SDS011;33747;49.524;8.390;2023-01-16T04:41:49;2.63;;;1.05;;
7338;SDS011;33747;49.524;8.390;2023-01-16T04:44:15;4.43;;;1.05;;
7338;SDS011;33747;49.524;8.390;2023-01-16T04:46:41;2.53;;;1.02;;
7338;SDS011;33747;49.524;8.390;2023-01-16T04:49:06;5.03;;;1.17;;
7338;SDS011;33747;49.524;8.390;2023-01-16T04:51:31;5.68;;;1.20;;
7338;SDS011;33747;49.524;8.390;2023-01-16T04:53:57;5.55;;;1.00;;
7338;SDS011;33747;49.524;8.390;2023-01-16T04:56:23;6.70;;;1.42;;
7338;SDS011;33747;49.524;8.390;2023-01-16T04:58:48;3.33;;;1.85;;
7338;SDS011;33747;49.524;8.390;2023-01-16T05:01:16;4.63;;;1.20;;
7338;SDS011;33747;49.524;8.390;2023-01-16T05:03:42;3.85;;;1.33;;
7338;SDS011;33747;49.524;8.390;2023-01-16T05:06:07;8.88;;;1.10;;
7338;SDS011;33747;49.524;8.390;2023-01-16T05:08:33;2.03;;;1.10;;
7338;SDS011;33747;49.524;8.390;2023-01-16T05:10:58;7.75;;;1.25;;
7338;SDS011;33747;49.524;8.390;2023-01-16T05:13:26;3.10;;;0.90;;
7338;SDS011;33747;49.524;8.390;2023-01-16T05:15:51;5.47;;;1.17;;
7338;SDS011;33747;49.524;8.390;2023-01-16T05:18:17;4.18;;;1.33;;
7338;SDS011;33747;49.524;8.390;2023-01-16T05:20:42;4.53;;;1.40;;
7338;SDS011;33747;49.524;8.390;2023-01-16T05:23:07;2.08;;;0.95;;
7338;SDS011;33747;49.524;8.390;2023-01-16T05:25:35;3.90;;;1.00;;
7338;SDS011;33747;49.524;8.390;2023-01-16T05:28:01;3.47;;;1.23;;
7338;SDS011;33747;49.524;8.390;2023-01-16T05:30:26;4.35;;;1.40;;
7338;SDS011;33747;49.524;8.390;2023-01-16T05:32:51;6.15;;;1.48;;
7338;SDS011;33747;49.524;8.390;2023-01-16T05:35:17;10.48;;;2.42;;
7338;SDS011;33747;49.524;8.390;2023-01-16T05:37:42;6.47;;;1.83;;
7338;SDS011;33747;49.524;8.390;2023-01-16T05:40:08;3.10;;;0.95;;
7338;SDS011;33747;49.524;8.390;2023-01-16T05:42:34;2.55;;;1.38;;
7338;SDS011;33747;49.524;8.390;2023-01-16T05:45:00;5.97;;;1.15;;
7338;SDS011;33747;49.524;8.390;2023-01-16T05:47:25;4.05;;;1.23;;
7338;SDS011;33747;49.524;8.390;2023-01-16T05:49:50;5.28;;;1.42;;
7338;SDS011;33747;49.524;8.390;2023-01-16T05:52:16;4.72;;;1.17;;
7338;SDS011;33747;49.524;8.390;2023-01-16T05:54:41;4.20;;;1.05;;
7338;SDS011;33747;49.524;8.390;2023-01-16T05:57:07;2.97;;;1.02;;
7338;SDS011;33747;49.524;8.390;2023-01-16T05:59:32;3.50;;;1.05;;
7338;SDS011;33747;49.524;8.390;2023-01-16T06:01:57;2.20;;;1.10;;
7338;SDS011;33747;49.524;8.390;2023-01-16T06:04:23;7.75;;;1.15;;
7338;SDS011;33747;49.524;8.390;2023-01-16T06:06:48;7.18;;;1.40;;
7338;SDS011;33747;49.524;8.390;2023-01-16T06:09:14;5.10;;;1.60;;
7338;SDS011;33747;49.524;8.390;2023-01-16T06:11:39;4.30;;;1.20;;
7338;SDS011;33747;49.524;8.390;2023-01-16T06:14:04;5.63;;;1.33;;
7338;SDS011;33747;49.524;8.390;2023-01-16T06:16:30;2.08;;;1.13;;
7338;SDS011;33747;49.524;8.390;2023-01-16T06:18:56;3.10;;;1.30;;
7338;SDS011;33747;49.524;8.390;2023-01-16T06:21:22;3.78;;;1.38;;
7338;SDS011;33747;49.524;8.390;2023-01-16T06:23:47;4.47;;;0.95;;
7338;SDS011;33747;49.524;8.390;2023-01-16T06:26:13;6.60;;;1.15;;
7338;SDS011;33747;49.524;8.390;2023-01-16T06:28:38;2.03;;;0.95;;
7338;SDS011;33747;49.524;8.390;2023-01-16T06:31:04;1.85;;;1.08;;
7338;SDS011;33747;49.524;8.390;2023-01-16T06:33:30;2.25;;;1.05;;
7338;SDS011;33747;49.524;8.390;2023-01-16T06:35:55;6.25;;;1.35;;
7338;SDS011;33747;49.524;8.390;2023-01-16T06:38:21;3.13;;;0.90;;
7338;SDS011;33747;49.524;8.390;2023-01-16T06:40:47;2.42;;;1.20;;
7338;SDS011;33747;49.524;8.390;2023-01-16T06:43:12;4.70;;;1.33;;
7338;SDS011;33747;49.524;8.390;2023-01-16T06:45:37;3.60;;;1.23;;
7338;SDS011;33747;49.524;8.390;2023-01-16T06:48:03;4.35;;;1.35;;
7338;SDS011;33747;49.524;8.390;2023-01-16T06:50:28;7.63;;;1.60;;
7338;SDS011;33747;49.524;8.390;2023-01-16T06:52:53;4.53;;;1.30;;
7338;SDS011;33747;49.524;8.390;2023-01-16T06:55:19;4.78;;;1.20;;
7338;SDS011;33747;49.524;8.390;2023-01-16T06:57:44;8.23;;;1.55;;
7338;SDS011;33747;49.524;8.390;2023-01-16T07:00:10;4.85;;;1.23;;
7338;SDS011;33747;49.524;8.390;2023-01-16T07:02:35;2.50;;;1.05;;
7338;SDS011;33747;49.524;8.390;2023-01-16T07:05:04;3.67;;;0.95;;
7338;SDS011;33747;49.524;8.390;2023-01-16T07:07:31;3.28;;;1.23;;
7338;SDS011;33747;49.524;8.390;2023-01-16T07:09:57;7.82;;;1.58;;
7338;SDS011;33747;49.524;8.390;2023-01-16T07:12:22;2.90;;;1.05;;
7338;SDS011;33747;49.524;8.390;2023-01-16T07:14:47;2.15;;;1.00;;
7338;SDS011;33747;49.524;8.390;2023-01-16T07:17:31;4.72;;;1.00;;
7338;SDS011;33747;49.524;8.390;2023-01-16T07:20:15;4.75;;;0.93;;
7338;SDS011;33747;49.524;8.390;2023-01-16T07:22:59;4.47;;;1.00;;
7338;SDS011;33747;49.524;8.390;2023-01-16T07:25:27;5.05;;;1.00;;
7338;SDS011;33747;49.524;8.390;2023-01-16T07:27:58;4.75;;;1.40;;
7338;SDS011;33747;49.524;8.390;2023-01-16T07:30:24;6.55;;;1.10;;
7338;SDS011;33747;49.524;8.390;2023-01-16T07:32:49;6.47;;;1.00;;
7338;SDS011;33747;49.524;8.390;2023-01-16T07:35:15;3.70;;;1.25;;
7338;SDS011;33747;49.524;8.390;2023-01-16T07:37:40;5.97;;;1.38;;
7338;SDS011;33747;49.524;8.390;2023-01-16T07:40:07;3.30;;;1.20;;
7338;SDS011;33747;49.524;8.390;2023-01-16T07:42:33;6.65;;;1.75;;
7338;SDS011;33747;49.524;8.390;2023-01-16T07:44:58;4.25;;;1.65;;
7338;SDS011;33747;49.524;8.390;2023-01-16T07:47:24;4.47;;;1.23;;
7338;SDS011;33747;49.524;8.390;2023-01-16T07:49:49;1.13;;;0.88;;
7338;SDS011;33747;49.524;8.390;2023-01-16T07:52:14;2.60;;;1.20;;
7338;SDS011;33747;49.524;8.390;2023-01-16T07:54:42;3.58;;;1.10;;
7338;SDS011;33747;49.524;8.390;2023-01-16T07:57:07;2.22;;;1.02;;
7338;SDS011;33747;49.524;8.390;2023-01-16T07:59:32;2.70;;;0.80;;
7338;SDS011;33747;49.524;8.390;2023-01-16T08:01:58;6.05;;;1.17;;
7338;SDS011;33747;49.524;8.390;2023-01-16T08:04:23;3.05;;;1.00;;
7338;SDS011;33747;49.524;8.390;2023-01-16T08:06:49;2.08;;;0.90;;
7338;SDS011;33747;49.524;8.390;2023-01-16T08:09:14;4.00;;;1.20;;
7338;SDS011;33747;49.524;8.390;2023-01-16T08:11:39;2.67;;;0.90;;
7338;SDS011;33747;49.524;8.390;2023-01-16T08:14:05;8.20;;;1.08;;
7338;SDS011;33747;49.524;8.390;2023-01-16T08:16:31;4.85;;;0.90;;
7338;SDS011;33747;49.524;8.390;2023-01-16T08:18:57;3.53;;;1.13;;
7338;SDS011;33747;49.524;8.390;2023-01-16T08:21:23;2.88;;;0.70;;
7338;SDS011;33747;49.524;8.390;2023-01-16T08:23:49;3.80;;;1.20;;
7338;SDS011;33747;49.524;8.390;2023-01-16T08:26:15;2.42;;;0.85;;
7338;SDS011;33747;49.524;8.390;2023-01-16T08:28:40;1.85;;;1.05;;
7338;SDS011;33747;49.524;8.390;2023-01-16T08:31:07;2.58;;;1.20;;
7338;SDS011;33747;49.524;8.390;2023-01-16T08:33:40;2.38;;;1.00;;
7338;SDS011;33747;49.524;8.390;2023-01-16T08:36:08;1.30;;;0.80;;
7338;SDS011;33747;49.524;8.390;2023-01-16T08:38:35;4.20;;;1.00;;
7338;SDS011;33747;49.524;8.390;2023-01-16T08:41:00;7.43;;;1.30;;
7338;SDS011;33747;49.524;8.390;2023-01-16T08:43:25;2.88;;;1.00;;
7338;SDS011;33747;49.524;8.390;2023-01-16T08:46:19;2.47;;;1.17;;
7338;SDS011;33747;49.524;8.390;2023-01-16T08:49:05;4.75;;;0.82;;
7338;SDS011;33747;49.524;8.390;2023-01-16T08:51:55;4.43;;;1.02;;
7338;SDS011;33747;49.524;8.390;2023-01-16T08:54:21;3.08;;;1.17;;
7338;SDS011;33747;49.524;8.390;2023-01-16T08:56:46;1.13;;;0.52;;
7338;SDS011;33747;49.524;8.390;2023-01-16T08:59:11;3.55;;;0.82;;
7338;SDS011;33747;49.524;8.390;2023-01-16T09:01:37;4.30;;;0.82;;
7338;SDS011;33747;49.524;8.390;2023-01-16T09:04:03;2.50;;;0.80;;
7338;SDS011;33747;49.524;8.390;2023-01-16T09:06:29;5.07;;;0.70;;
7338;SDS011;33747;49.524;8.390;2023-01-16T09:08:55;2.70;;;0.80;;
7338;SDS011;33747;49.524;8.390;2023-01-16T09:11:20;4.78;;;1.00;;
7338;SDS011;33747;49.524;8.390;2023-01-16T09:14:04;2.50;;;0.85;;
7338;SDS011;33747;49.524;8.390;2023-01-16T09:16:30;2.00;;;0.65;;
7338;SDS011;33747;49.524;8.390;2023-01-16T09:18:55;2.83;;;1.05;;
7338;SDS011;33747;49.524;8.390;2023-01-16T09:21:20;2.60;;;0.95;;
7338;SDS011;33747;49.524;8.390;2023-01-16T09:23:48;1.30;;;0.77;;
7338;SDS011;33747;49.524;8.390;2023-01-16T09:26:14;5.47;;;0.75;;
7338;SDS011;33747;49.524;8.390;2023-01-16T09:28:39;2.63;;;0.90;;
7338;SDS011;33747;49.524;8.390;2023-01-16T09:31:05;4.97;;;0.93;;
7338;SDS011;33747;49.524;8.390;2023-01-16T09:33:30;3.17;;;1.08;;
7338;SDS011;33747;49.524;8.390;2023-01-16T09:35:56;6.32;;;2.58;;
7338;SDS011;33747;49.524;8.390;2023-01-16T09:38:21;3.00;;;1.35;;
7338;SDS011;33747;49.524;8.390;2023-01-16T09:40:47;3.20;;;1.10;;
7338;SDS011;33747;49.524;8.390;2023-01-16T09:46:04;4.63;;;1.00;;
7338;SDS011;33747;49.524;8.390;2023-01-16T09:48:33;1.52;;;0.93;;
7338;SDS011;33747;49.524;8.390;2023-01-16T09:51:05;2.83;;;1.15;;
7338;SDS011;33747;49.524;8.390;2023-01-16T09:53:33;3.17;;;0.77;;
7338;SDS011;33747;49.524;8.390;2023-01-16T09:56:22;3.00;;;0.95;;
7338;SDS011;33747;49.524;8.390;2023-01-16T09:59:12;1.05;;;0.90;;
7338;SDS011;33747;49.524;8.390;2023-01-16T10:04:39;5.30;;;1.48;;
7338;SDS011;33747;49.524;8.390;2023-01-16T10:07:13;1.35;;;0.73;;
7338;SDS011;33747;49.524;8.390;2023-01-16T10:09:58;2.15;;;0.77;;
7338;SDS011;33747;49.524;8.390;2023-01-16T10:12:29;4.95;;;1.13;;
7338;SDS011;33747;49.524;8.390;2023-01-16T10:15:11;3.60;;;0.98;;
7338;SDS011;33747;49.524;8.390;2023-01-16T10:17:54;3.30;;;0.93;;
7338;SDS011;33747;49.524;8.390;2023-01-16T10:23:16;1.60;;;0.70;;
7338;SDS011;33747;49.524;8.390;2023-01-16T10:26:03;3.00;;;0.70;;
7338;SDS011;33747;49.524;8.390;2023-01-16T10:33:52;2.67;;;0.73;;
7338;SDS011;33747;49.524;8.390;2023-01-16T10:36:21;1.92;;;0.90;;
7338;SDS011;33747;49.524;8.390;2023-01-16T10:38:51;1.60;;;1.17;;
7338;SDS011;33747;49.524;8.390;2023-01-16T10:41:26;4.57;;;1.30;;
7338;SDS011;33747;49.524;8.390;2023-01-16T10:44:57;4.55;;;0.85;;
7338;SDS011;33747;49.524;8.390;2023-01-16T10:47:17;1.20;;;1.10;;
7338;SDS011;33747;49.524;8.390;2023-01-16T10:50:03;3.17;;;2.17;;
7338;SDS011;33747;49.524;8.390;2023-01-16T10:52:30;2.17;;;1.15;;
7338;SDS011;33747;49.524;8.390;2023-01-16T10:54:56;1.58;;;1.17;;
7338;SDS011;33747;49.524;8.390;2023-01-16T10:57:22;2.40;;;1.30;;
7338;SDS011;33747;49.524;8.390;2023-01-16T10:59:51;2.83;;;0.90;;
7338;SDS011;33747;49.524;8.390;2023-01-16T11:02:24;0.73;;;0.65;;
7338;SDS011;33747;49.524;8.390;2023-01-16T11:04:54;3.25;;;1.05;;
7338;SDS011;33747;49.524;8.390;2023-01-16T11:07:20;2.13;;;1.30;;
7338;SDS011;33747;49.524;8.390;2023-01-16T11:09:46;2.45;;;0.98;;
7338;SDS011;33747;49.524;8.390;2023-01-16T11:12:22;3.38;;;1.30;;
7338;SDS011;33747;49.524;8.390;2023-01-16T11:15:10;2.25;;;0.95;;
7338;SDS011;33747;49.524;8.390;2023-01-16T11:17:57;2.45;;;1.05;;
7338;SDS011;33747;49.524;8.390;2023-01-16T11:20:43;2.78;;;1.05;;
7338;SDS011;33747;49.524;8.390;2023-01-16T11:23:23;2.88;;;1.25;;
7338;SDS011;33747;49.524;8.390;2023-01-16T11:25:51;3.70;;;1.33;;
7338;SDS011;33747;49.524;8.390;2023-01-16T11:28:20;0.70;;;0.70;;
7338;SDS011;33747;49.524;8.390;2023-01-16T11:30:47;1.73;;;1.00;;
7338;SDS011;33747;49.524;8.390;2023-01-16T11:33:19;2.13;;;1.48;;
7338;SDS011;33747;49.524;8.390;2023-01-16T11:35:56;1.35;;;1.00;;
7338;SDS011;33747;49.524;8.390;2023-01-16T11:38:23;1.70;;;0.90;;
7338;SDS011;33747;49.524;8.390;2023-01-16T11:40:49;1.02;;;0.95;;
7338;SDS011;33747;49.524;8.390;2023-01-16T11:43:17;1.98;;;1.00;;
7338;SDS011;33747;49.524;8.390;2023-01-16T11:46:06;1.67;;;1.05;;
7338;SDS011;33747;49.524;8.390;2023-01-16T11:48:45;1.48;;;1.13;;
7338;SDS011;33747;49.524;8.390;2023-01-16T11:51:18;1.63;;;1.00;;
7338;SDS011;33747;49.524;8.390;2023-01-16T11:53:46;1.73;;;0.80;;
7338;SDS011;33747;49.524;8.390;2023-01-16T11:56:17;2.15;;;1.08;;
7338;SDS011;33747;49.524;8.390;2023-01-16T12:04:27;2.53;;;1.38;;
7338;SDS011;33747;49.524;8.390;2023-01-16T12:07:07;1.40;;;1.30;;
7338;SDS011;33747;49.524;8.390;2023-01-16T12:09:50;3.53;;;1.10;;
7338;SDS011;33747;49.524;8.390;2023-01-16T12:15:37;2.72;;;0.90;;
7338;SDS011;33747;49.524;8.390;2023-01-16T12:20:52;1.98;;;1.17;;
7338;SDS011;33747;49.524;8.390;2023-01-16T12:23:38;1.50;;;1.00;;
7338;SDS011;33747;49.524;8.390;2023-01-16T12:26:28;2.25;;;1.10;;
7338;SDS011;33747;49.524;8.390;2023-01-16T12:29:08;2.97;;;1.00;;
7338;SDS011;33747;49.524;8.390;2023-01-16T12:34:33;4.72;;;1.17;;
7338;SDS011;33747;49.524;8.390;2023-01-16T12:37:12;0.85;;;0.85;;
7338;SDS011;33747;49.524;8.390;2023-01-16T12:45:48;0.90;;;0.85;;
7338;SDS011;33747;49.524;8.390;2023-01-16T12:53:56;1.30;;;1.00;;
7338;SDS011;33747;49.524;8.390;2023-01-16T12:56:30;1.20;;;0.85;;
7338;SDS011;33747;49.524;8.390;2023-01-16T12:59:25;1.08;;;0.90;;
7338;SDS011;33747;49.524;8.390;2023-01-16T13:01:55;0.90;;;0.90;;
7338;SDS011;33747;49.524;8.390;2023-01-16T13:04:26;3.33;;;1.02;;
7338;SDS011;33747;49.524;8.390;2023-01-16T13:06:56;1.05;;;0.98;;
7338;SDS011;33747;49.524;8.390;2023-01-16T13:11:59;3.42;;;1.20;;
7338;SDS011;33747;49.524;8.390;2023-01-16T13:14:47;0.73;;;0.73;;
7338;SDS011;33747;49.524;8.390;2023-01-16T13:17:19;3.08;;;0.82;;
7338;SDS011;33747;49.524;8.390;2023-01-16T13:19:48;4.07;;;0.95;;
7338;SDS011;33747;49.524;8.390;2023-01-16T13:22:23;2.78;;;0.95;;
7338;SDS011;33747;49.524;8.390;2023-01-16T13:25:06;0.93;;;0.77;;
7338;SDS011;33747;49.524;8.390;2023-01-16T13:30:08;0.70;;;0.70;;
7338;SDS011;33747;49.524;8.390;2023-01-16T13:32:39;0.80;;;0.80;;
7338;SDS011;33747;49.524;8.390;2023-01-16T13:43:36;0.75;;;0.75;;
7338;SDS011;33747;49.524;8.390;2023-01-16T13:46:43;1.63;;;1.00;;
7338;SDS011;33747;49.524;8.390;2023-01-16T13:49:14;1.42;;;0.80;;
7338;SDS011;33747;49.524;8.390;2023-01-16T13:51:42;9.55;;;1.13;;
7338;SDS011;33747;49.524;8.390;2023-01-16T13:54:12;1.15;;;0.77;;
7338;SDS011;33747;49.524;8.390;2023-01-16T13:56:40;0.90;;;0.70;;
7338;SDS011;33747;49.524;8.390;2023-01-16T13:59:18;3.92;;;0.95;;
7338;SDS011;33747;49.524;8.390;2023-01-16T14:01:59;1.10;;;0.90;;
7338;SDS011;33747;49.524;8.390;2023-01-16T14:04:26;0.70;;;0.63;;
7338;SDS011;33747;49.524;8.390;2023-01-16T14:06:54;2.38;;;0.70;;
7338;SDS011;33747;49.524;8.390;2023-01-16T14:13:02;0.80;;;0.70;;
7338;SDS011;33747;49.524;8.390;2023-01-16T14:15:49;0.90;;;0.68;;
7338;SDS011;33747;49.524;8.390;2023-01-16T14:21:16;0.82;;;0.57;;
7338;SDS011;33747;49.524;8.390;2023-01-16T14:23:43;2.47;;;0.40;;
7338;SDS011;33747;49.524;8.390;2023-01-16T14:26:35;0.70;;;0.50;;
7338;SDS011;33747;49.524;8.390;2023-01-16T14:34:36;1.05;;;0.50;;
7338;SDS011;33747;49.524;8.390;2023-01-16T14:37:15;0.88;;;0.40;;
7338;SDS011;33747;49.524;8.390;2023-01-16T14:42:35;1.85;;;0.40;;
7338;SDS011;33747;49.524;8.390;2023-01-16T14:48:12;0.38;;;0.38;;
7338;SDS011;33747;49.524;8.390;2023-01-16T14:54:05;0.30;;;0.30;;
7338;SDS011;33747;49.524;8.390;2023-01-16T14:56:52;3.13;;;0.50;;
7338;SDS011;33747;49.524;8.390;2023-01-16T14:59:30;0.73;;;0.50;;
7338;SDS011;33747;49.524;8.390;2023-01-16T15:02:17;0.30;;;0.30;;
7338;SDS011;33747;49.524;8.390;2023-01-16T15:07:54;0.50;;;0.50;;
7338;SDS011;33747;49.524;8.390;2023-01-16T15:10:19;1.88;;;0.47;;
7338;SDS011;33747;49.524;8.390;2023-01-16T15:12:46;0.40;;;0.40;;
7338;SDS011;33747;49.524;8.390;2023-01-16T15:15:19;0.75;;;0.40;;
7338;SDS011;33747;49.524;8.390;2023-01-16T15:17:46;0.32;;;0.32;;
7338;SDS011;33747;49.524;8.390;2023-01-16T15:20:30;1.00;;;0.52;;
7338;SDS011;33747;49.524;8.390;2023-01-16T15:23:18;0.35;;;0.30;;
7338;SDS011;33747;49.524;8.390;2023-01-16T15:28:32;0.80;;;0.40;;
7338;SDS011;33747;49.524;8.390;2023-01-16T15:31:20;0.50;;;0.50;;
7338;SDS011;33747;49.524;8.390;2023-01-16T15:34:01;1.17;;;0.55;;
7338;SDS011;33747;49.524;8.390;2023-01-16T15:38:59;0.50;;;0.50;;
7338;SDS011;33747;49.524;8.390;2023-01-16T15:41:29;1.75;;;0.52;;
7338;SDS011;33747;49.524;8.390;2023-01-16T15:44:18;0.50;;;0.50;;
7338;SDS011;33747;49.524;8.390;2023-01-16T15:53:01;0.32;;;0.30;;
7338;SDS011;33747;49.524;8.390;2023-01-16T15:55:29;2.13;;;0.50;;
7338;SDS011;33747;49.524;8.390;2023-01-16T15:57:59;0.73;;;0.60;;
7338;SDS011;33747;49.524;8.390;2023-01-16T16:00:27;1.98;;;0.80;;
7338;SDS011;33747;49.524;8.390;2023-01-16T16:02:58;2.28;;;0.60;;
7338;SDS011;33747;49.524;8.390;2023-01-16T16:05:25;1.15;;;0.70;;
7338;SDS011;33747;49.524;8.390;2023-01-16T16:07:52;1.40;;;0.75;;
7338;SDS011;33747;49.524;8.390;2023-01-16T16:10:17;0.57;;;0.50;;
7338;SDS011;33747;49.524;8.390;2023-01-16T16:13:04;3.03;;;0.60;;
7338;SDS011;33747;49.524;8.390;2023-01-16T16:15:30;1.42;;;0.45;;
7338;SDS011;33747;49.524;8.390;2023-01-16T16:18:15;0.60;;;0.60;;
7338;SDS011;33747;49.524;8.390;2023-01-16T16:20:42;0.52;;;0.52;;
7338;SDS011;33747;49.524;8.390;2023-01-16T16:26:04;0.57;;;0.50;;
7338;SDS011;33747;49.524;8.390;2023-01-16T16:31:09;0.73;;;0.73;;
7338;SDS011;33747;49.524;8.390;2023-01-16T16:33:38;1.73;;;0.70;;
7338;SDS011;33747;49.524;8.390;2023-01-16T16:36:04;0.65;;;0.65;;
7338;SDS011;33747;49.524;8.390;2023-01-16T16:38:31;0.50;;;0.50;;
7338;SDS011;33747;49.524;8.390;2023-01-16T16:43:45;2.15;;;0.80;;
7338;SDS011;33747;49.524;8.390;2023-01-16T16:48:48;0.80;;;0.75;;
7338;SDS011;33747;49.524;8.390;2023-01-16T16:53:53;0.70;;;0.70;;
7338;SDS011;33747;49.524;8.390;2023-01-16T16:56:22;1.33;;;0.85;;
7338;SDS011;33747;49.524;8.390;2023-01-16T16:58:54;0.82;;;0.70;;
7338;SDS011;33747;49.524;8.390;2023-01-16T17:01:20;0.50;;;0.50;;
7338;SDS011;33747;49.524;8.390;2023-01-16T17:03:48;1.25;;;0.70;;
7338;SDS011;33747;49.524;8.390;2023-01-16T17:06:17;1.70;;;0.70;;
7338;SDS011;33747;49.524;8.390;2023-01-16T17:08:44;0.88;;;0.55;;
7338;SDS011;33747;49.524;8.390;2023-01-16T17:11:13;0.60;;;0.60;;
7338;SDS011;33747;49.524;8.390;2023-01-16T17:13:39;0.68;;;0.68;;
7338;SDS011;33747;49.524;8.390;2023-01-16T17:16:04;0.90;;;0.63;;
7338;SDS011;33747;49.524;8.390;2023-01-16T17:18:31;1.00;;;0.75;;
7338;SDS011;33747;49.524;8.390;2023-01-16T17:20:56;2.58;;;0.70;;
7338;SDS011;33747;49.524;8.390;2023-01-16T17:23:22;0.50;;;0.50;;
7338;SDS011;33747;49.524;8.390;2023-01-16T17:25:48;1.10;;;0.60;;
7338;SDS011;33747;49.524;8.390;2023-01-16T17:28:13;2.15;;;0.50;;
7338;SDS011;33747;49.524;8.390;2023-01-16T17:30:39;1.95;;;0.80;;
7338;SDS011;33747;49.524;8.390;2023-01-16T17:33:06;0.60;;;0.60;;
7338;SDS011;33747;49.524;8.390;2023-01-16T17:35:36;0.98;;;0.60;;
7338;SDS011;33747;49.524;8.390;2023-01-16T17:38:15;1.15;;;0.77;;